Knifley, Kentucky
Current Conditions -  °F | °C
As of 4:15 PM on Sunday 25 Jan 2015 (Local Time) from K6I2 Reporting Station
Haze Haze  
Wind Chill: 41°   Ceiling: 3400
Heat Index: 45°   Visibility: 4mi
Dew Point: 39°   Wind: 6mph
Humidity: 81%   Direction: 160°SSE
Pressure: 29.63"   Gusts: NA
Location:  37.24°N, 85.19°W
Report Text: K6I2 252215Z AUTO 16005KT 4SM HZ SCT020 OVC034 07/04 A2963 RMK AO2
Loading
Personal Weather Stations






























Interactive Weather Map New forecast layout! Learn more

10-Day Weather Forecast

Advertisements
Track Severe Weather on mobile